Time;durP1;ratioP1;P1;durP2;ratioP2;P2;SDS_P1;SDS_P2;PMS_P1;PMS_P2;Temp;Humidity;BMP_temperature;BMP_pressure;BME280_temperature;BME280_humidity;BME280_pressure;Samples;Min_cycle;Max_cycle;Signal;HPM_P1;HPM_P2
2023/09/26 00:00:10;;;;;;;;;;;;;;;22.14;nan;102547.16;4982534;28;20037;-93
2023/09/26 00:02:37;;;;;;;;;;;;;;;22.11;nan;102554.00;4986117;28;19929;-93
2023/09/26 00:05:03;;;;;;;;;;;;;;;22.10;nan;102549.63;4983705;28;19913;-93
2023/09/26 00:07:29;;;;;;;;;;;;;;;22.13;nan;102550.97;4986262;28;20379;-93
2023/09/26 00:09:56;;;;;;;;;;;;;;;22.12;nan;102550.16;4992002;28;19926;-92
2023/09/26 00:12:22;;;;;;;;;;;;;;;22.12;nan;102560.25;4985716;28;19934;-92
2023/09/26 00:14:47;;;;;;;;;;;;;;;22.10;nan;102548.81;4985498;28;19933;-92
2023/09/26 00:17:13;;;;;;;;;;;;;;;22.07;nan;102557.53;4986128;28;19918;-93
2023/09/26 00:19:39;;;;;;;;;;;;;;;22.02;nan;102556.44;4983033;28;19961;-92
2023/09/26 00:22:04;;;;;;;;;;;;;;;22.02;nan;102545.53;4997753;28;19925;-93
2023/09/26 00:24:31;;;;;;;;;;;;;;;22.07;nan;102547.44;4983764;28;19965;-92
2023/09/26 00:26:58;;;;;;;;;;;;;;;22.11;nan;102548.53;4983227;28;19921;-93
2023/09/26 00:29:25;;;;;;;;;;;;;;;22.15;nan;102538.66;4983920;28;19941;-94
2023/09/26 00:31:51;;;;;;;;;;;;;;;22.18;nan;102534.56;4984351;28;19929;-93
2023/09/26 00:34:17;;;;;;;;;;;;;;;22.20;nan;102541.34;4982672;28;19926;-93
2023/09/26 00:36:45;;;;;;;;;;;;;;;22.22;nan;102541.88;4981624;28;19922;-93
2023/09/26 00:39:12;;;;;;;;;;;;;;;22.24;nan;102545.16;4981973;28;19969;-93
2023/09/26 00:41:39;;;;;;;;;;;;;;;22.26;nan;102536.66;4982742;28;19972;-93
2023/09/26 00:44:11;;;;;;;;;;;;;;;22.26;nan;102533.94;4977130;28;20475;-93
2023/09/26 00:46:41;;;;;;;;;;;;;;;22.25;nan;102535.84;4983322;28;19926;-93
2023/09/26 00:49:06;;;;;;;;;;;;;;;22.24;nan;102530.69;4982311;28;19925;-93
2023/09/26 00:51:33;;;;;;;;;;;;;;;22.26;nan;102536.66;4981339;28;19928;-93
2023/09/26 00:53:59;;;;;;;;;;;;;;;22.27;nan;102538.34;4980311;28;19930;-93
2023/09/26 00:56:25;;;;;;;;;;;;;;;22.28;nan;102537.22;4998706;28;19925;-93
2023/09/26 00:58:53;;;;;;;;;;;;;;;22.27;nan;102533.69;4983037;28;19970;-93
2023/09/26 01:01:24;;;;;;;;;;;;;;;22.29;nan;102538.84;4983284;28;19922;-93
2023/09/26 01:03:49;;;;;;;;;;;;;;;22.29;nan;102533.41;4980592;28;19926;-92
2023/09/26 01:06:18;;;;;;;;;;;;;;;22.29;nan;102528.75;4983257;28;19925;-93
2023/09/26 01:08:54;;;;;;;;;;;;;;;22.33;nan;102529.00;4979166;28;19930;-92
2023/09/26 01:11:22;;;;;;;;;;;;;;;22.36;nan;102527.59;4983987;28;19965;-93
2023/09/26 01:13:49;;;;;;;;;;;;;;;22.39;nan;102525.13;4977045;28;19965;-93
2023/09/26 01:16:16;;;;;;;;;;;;;;;22.39;nan;102525.13;4980333;28;19922;-93
2023/09/26 01:18:43;;;;;;;;;;;;;;;22.40;nan;102518.56;4982031;28;19925;-93
2023/09/26 01:21:08;;;;;;;;;;;;;;;22.42;nan;102521.81;4983067;28;20326;-93
2023/09/26 01:23:37;;;;;;;;;;;;;;;22.43;nan;102526.16;4995265;28;19972;-92
2023/09/26 01:26:03;;;;;;;;;;;;;;;22.45;nan;102531.38;4981362;28;19922;-93
2023/09/26 01:28:30;;;;;;;;;;;;;;;22.46;nan;102522.88;4986691;28;19926;-93
2023/09/26 01:30:56;;;;;;;;;;;;;;;22.49;nan;102519.59;4985496;28;19925;-93
2023/09/26 01:33:23;;;;;;;;;;;;;;;22.51;nan;102517.38;4987427;28;19929;-93
2023/09/26 01:35:51;;;;;;;;;;;;;;;22.54;nan;102518.72;4983794;28;20397;-93
2023/09/26 01:40:52;;;;;;;;;;;;;;;22.56;nan;102516.50;1470283;26;20179;-84
2023/09/26 01:43:17;;;;;;;;;;;;;;;22.59;nan;102514.03;5018870;28;19928;-84
2023/09/26 01:45:43;;;;;;;;;;;;;;;22.63;nan;102508.00;5006189;28;19923;-84
2023/09/26 01:48:09;;;;;;;;;;;;;;;22.66;nan;102507.44;5007392;28;19920;-84
2023/09/26 01:50:35;;;;;;;;;;;;;;;22.69;nan;102504.13;5005500;28;20283;-84
2023/09/26 01:53:00;;;;;;;;;;;;;;;22.70;nan;102500.28;5005098;28;19925;-84
2023/09/26 01:55:26;;;;;;;;;;;;;;;22.69;nan;102501.38;5005561;28;19917;-84
2023/09/26 01:57:51;;;;;;;;;;;;;;;22.66;nan;102505.50;5004526;28;20554;-84
2023/09/26 02:00:17;;;;;;;;;;;;;;;22.67;nan;102503.59;5001360;28;20096;-84
2023/09/26 02:02:47;;;;;;;;;;;;;;;22.70;nan;102503.00;5006369;28;19921;-84
2023/09/26 02:05:14;;;;;;;;;;;;;;;22.71;nan;102499.19;5003700;28;20474;-84
2023/09/26 02:07:39;;;;;;;;;;;;;;;22.71;nan;102494.53;5002605;28;20348;-84
2023/09/26 02:10:05;;;;;;;;;;;;;;;22.71;nan;102493.72;5007309;28;19930;-84
2023/09/26 02:12:31;;;;;;;;;;;;;;;22.72;nan;102496.16;5001724;28;19931;-84
2023/09/26 02:14:57;;;;;;;;;;;;;;;22.73;nan;102484.13;4999321;28;19925;-84
2023/09/26 02:17:22;;;;;;;;;;;;;;;22.74;nan;102488.47;5005684;28;20412;-84
2023/09/26 02:19:48;;;;;;;;;;;;;;;22.74;nan;102487.66;5002791;28;19956;-84
2023/09/26 02:22:13;;;;;;;;;;;;;;;22.70;nan;102498.38;5007578;28;19921;-84
2023/09/26 02:24:38;;;;;;;;;;;;;;;22.66;nan;102488.31;5003725;28;20518;-84
2023/09/26 02:27:04;;;;;;;;;;;;;;;22.63;nan;102494.34;5004809;28;19929;-84
2023/09/26 02:29:29;;;;;;;;;;;;;;;22.60;nan;102496.53;5006790;28;19922;-85
2023/09/26 02:31:54;;;;;;;;;;;;;;;22.56;nan;102495.47;5003913;28;19917;-85
2023/09/26 02:34:20;;;;;;;;;;;;;;;22.52;nan;102499.88;5002182;28;19918;-85
2023/09/26 02:36:45;;;;;;;;;;;;;;;22.47;nan;102491.75;5004320;28;20384;-85
2023/09/26 02:39:10;;;;;;;;;;;;;;;22.44;nan;102494.22;5007520;28;20232;-85
2023/09/26 02:41:36;;;;;;;;;;;;;;;22.39;nan;102495.06;5003275;28;19957;-84
2023/09/26 02:44:03;;;;;;;;;;;;;;;22.35;nan;102491.28;4999700;28;19917;-84
2023/09/26 02:46:28;;;;;;;;;;;;;;;22.30;nan;102496.81;4999761;28;19925;-84
2023/09/26 02:48:54;;;;;;;;;;;;;;;22.26;nan;102491.09;5004875;28;19932;-85
2023/09/26 02:51:19;;;;;;;;;;;;;;;22.24;nan;102497.91;5007610;28;20408;-84
2023/09/26 02:53:44;;;;;;;;;;;;;;;22.21;nan;102499.31;5003056;28;20016;-84
2023/09/26 02:56:10;;;;;;;;;;;;;;;22.17;nan;102487.34;5003205;28;20202;-84
2023/09/26 02:58:35;;;;;;;;;;;;;;;22.14;nan;102496.09;5003643;28;19929;-84
2023/09/26 03:01:01;;;;;;;;;;;;;;;22.10;nan;102492.31;5002858;28;20486;-85
2023/09/26 03:03:26;;;;;;;;;;;;;;;22.05;nan;102489.59;5001944;28;20373;-85
2023/09/26 03:05:52;;;;;;;;;;;;;;;22.00;nan;102489.59;5002459;28;20399;-85
2023/09/26 03:08:17;;;;;;;;;;;;;;;21.96;nan;102488.53;5002667;28;20027;-84
2023/09/26 03:10:43;;;;;;;;;;;;;;;21.92;nan;102492.94;5004517;28;20015;-84
2023/09/26 03:13:08;;;;;;;;;;;;;;;21.87;nan;102495.69;4999066;28;19925;-84
2023/09/26 03:15:34;;;;;;;;;;;;;;;21.85;nan;102493.22;4997317;28;20441;-84
2023/09/26 03:18:00;;;;;;;;;;;;;;;21.81;nan;102503.09;5001649;28;19930;-84
2023/09/26 03:20:25;;;;;;;;;;;;;;;21.78;nan;102500.91;5005238;28;19968;-84
2023/09/26 03:22:50;;;;;;;;;;;;;;;21.74;nan;102504.50;5002354;28;19937;-84
2023/09/26 03:25:15;;;;;;;;;;;;;;;21.68;nan;102493.59;5002896;28;20452;-84
2023/09/26 03:27:41;;;;;;;;;;;;;;;21.64;nan;102500.72;5005763;28;20348;-84
2023/09/26 03:30:08;;;;;;;;;;;;;;;21.60;nan;102496.91;5001318;28;19948;-84
2023/09/26 03:32:33;;;;;;;;;;;;;;;21.55;nan;102496.13;5003122;28;19929;-84
2023/09/26 03:34:58;;;;;;;;;;;;;;;21.50;nan;102490.69;5001690;28;20709;-84
2023/09/26 03:37:24;;;;;;;;;;;;;;;21.44;nan;102494.53;5006731;28;19964;-84
2023/09/26 03:39:49;;;;;;;;;;;;;;;21.35;nan;102489.63;5001082;28;19929;-84
2023/09/26 03:42:14;;;;;;;;;;;;;;;21.29;nan;102490.75;5007354;28;19921;-84
2023/09/26 03:44:42;;;;;;;;;;;;;;;21.29;nan;102493.50;4997316;28;20450;-84
2023/09/26 03:47:07;;;;;;;;;;;;;;;21.28;nan;102486.41;5006758;28;20004;-84
2023/09/26 03:49:32;;;;;;;;;;;;;;;21.27;nan;102487.50;5005925;28;19925;-85
2023/09/26 03:51:57;;;;;;;;;;;;;;;21.25;nan;102486.16;5004576;28;19936;-84
2023/09/26 03:54:24;;;;;;;;;;;;;;;21.24;nan;102485.34;5004717;28;19918;-85
2023/09/26 03:56:50;;;;;;;;;;;;;;;21.24;nan;102479.03;4999600;28;20361;-84
2023/09/26 03:59:16;;;;;;;;;;;;;;;21.21;nan;102482.31;5001366;28;19932;-84
2023/09/26 04:01:42;;;;;;;;;;;;;;;21.19;nan;102474.44;5001235;28;20641;-84
2023/09/26 04:04:08;;;;;;;;;;;;;;;21.15;nan;102476.06;5000965;28;19921;-84
2023/09/26 04:06:33;;;;;;;;;;;;;;;21.12;nan;102477.44;5002269;28;19928;-84
2023/09/26 04:08:59;;;;;;;;;;;;;;;21.10;nan;102478.81;4997852;28;20368;-84
2023/09/26 04:11:25;;;;;;;;;;;;;;;21.07;nan;102473.91;5004386;28;19921;-84
2023/09/26 04:13:50;;;;;;;;;;;;;;;21.03;nan;102486.47;4996636;28;20006;-84
2023/09/26 04:16:16;;;;;;;;;;;;;;;20.99;nan;102469.81;5004517;28;19963;-84
2023/09/26 04:18:43;;;;;;;;;;;;;;;20.95;nan;102474.19;4999220;28;19968;-84
2023/09/26 04:21:08;;;;;;;;;;;;;;;20.92;nan;102471.22;5002841;28;19929;-85
2023/09/26 04:23:34;;;;;;;;;;;;;;;20.89;nan;102471.78;5002018;28;20477;-84
2023/09/26 04:25:59;;;;;;;;;;;;;;;20.85;nan;102471.50;5001324;28;19925;-84
2023/09/26 04:28:24;;;;;;;;;;;;;;;20.82;nan;102472.03;4998088;28;20404;-84
2023/09/26 04:30:50;;;;;;;;;;;;;;;20.78;nan;102471.78;5002803;28;20285;-84
2023/09/26 04:33:15;;;;;;;;;;;;;;;20.75;nan;102474.25;5001341;28;20012;-84
2023/09/26 04:35:41;;;;;;;;;;;;;;;20.73;nan;102476.44;5001863;28;19976;-84
2023/09/26 04:38:06;;;;;;;;;;;;;;;20.70;nan;102471.53;5002824;28;19921;-84
2023/09/26 04:40:33;;;;;;;;;;;;;;;20.69;nan;102473.44;5002136;28;19939;-84
2023/09/26 04:42:59;;;;;;;;;;;;;;;20.67;nan;102472.91;5000081;28;20011;-84
2023/09/26 04:45:25;;;;;;;;;;;;;;;20.63;nan;102469.06;5000222;28;19971;-85
2023/09/26 04:47:51;;;;;;;;;;;;;;;20.59;nan;102470.72;4999623;28;19918;-84
2023/09/26 04:50:17;;;;;;;;;;;;;;;20.57;nan;102469.38;5011488;28;20486;-84
2023/09/26 04:52:42;;;;;;;;;;;;;;;20.55;nan;102464.19;5003788;28;19917;-84
2023/09/26 04:55:07;;;;;;;;;;;;;;;20.51;nan;102461.22;5016946;28;19925;-83
2023/09/26 04:57:33;;;;;;;;;;;;;;;20.49;nan;102466.13;5000098;28;19927;-83
2023/09/26 04:59:58;;;;;;;;;;;;;;;20.44;nan;102460.66;5002512;28;19977;-83
2023/09/26 05:02:24;;;;;;;;;;;;;;;20.42;nan;102454.66;4998826;28;19918;-83
2023/09/26 05:04:49;;;;;;;;;;;;;;;20.38;nan;102450.81;5005799;28;19921;-83
2023/09/26 05:07:16;;;;;;;;;;;;;;;20.35;nan;102448.66;5010297;28;19932;-84
2023/09/26 05:09:41;;;;;;;;;;;;;;;20.31;nan;102446.75;5007167;28;19921;-84
2023/09/26 05:12:06;;;;;;;;;;;;;;;20.30;nan;102450.56;5004827;28;19928;-84
2023/09/26 05:14:32;;;;;;;;;;;;;;;20.30;nan;102445.13;5002124;28;19991;-84
2023/09/26 05:16:57;;;;;;;;;;;;;;;20.29;nan;102441.59;5005037;28;20005;-84
2023/09/26 05:19:22;;;;;;;;;;;;;;;20.29;nan;102446.19;5001072;28;20408;-84
2023/09/26 05:21:47;;;;;;;;;;;;;;;20.28;nan;102444.56;5005221;28;20405;-84
2023/09/26 05:24:13;;;;;;;;;;;;;;;20.27;nan;102448.38;5002747;28;19975;-84
2023/09/26 05:26:38;;;;;;;;;;;;;;;20.27;nan;102460.06;5005097;28;20841;-84
2023/09/26 05:29:03;;;;;;;;;;;;;;;20.28;nan;102450.00;5023332;28;19921;-89
2023/09/26 05:31:30;;;;;;;;;;;;;;;20.27;nan;102454.63;5004976;28;19932;-84
2023/09/26 05:33:56;;;;;;;;;;;;;;;20.28;nan;102450.00;5001284;28;19917;-84
2023/09/26 05:36:22;;;;;;;;;;;;;;;20.27;nan;102454.63;5006067;28;19957;-84
2023/09/26 05:38:47;;;;;;;;;;;;;;;20.27;nan;102461.97;5006272;28;20011;-85
2023/09/26 05:41:12;;;;;;;;;;;;;;;20.28;nan;102460.88;5007123;28;19926;-84
2023/09/26 05:43:37;;;;;;;;;;;;;;;20.29;nan;102460.63;5004122;28;19924;-85
2023/09/26 05:46:04;;;;;;;;;;;;;;;20.33;nan;102459.00;5001796;28;19924;-84
2023/09/26 05:48:29;;;;;;;;;;;;;;;20.35;nan;102456.81;5008300;28;19951;-84
2023/09/26 05:50:59;;;;;;;;;;;;;;;20.38;nan;102461.72;5005894;28;19924;-84
2023/09/26 05:53:24;;;;;;;;;;;;;;;20.37;nan;102449.19;5003772;28;19928;-85
2023/09/26 05:55:52;;;;;;;;;;;;;;;20.36;nan;102450.28;5006823;28;19926;-85
2023/09/26 05:58:21;;;;;;;;;;;;;;;20.37;nan;102454.63;5004543;28;19925;-84
2023/09/26 06:00:49;;;;;;;;;;;;;;;20.40;nan;102456.00;4999247;28;20456;-84
2023/09/26 06:03:15;;;;;;;;;;;;;;;20.43;nan;102458.19;5008672;28;19944;-85
2023/09/26 06:05:43;;;;;;;;;;;;;;;20.47;nan;102451.13;5009931;28;20389;-84
2023/09/26 06:08:09;;;;;;;;;;;;;;;20.50;nan;102456.84;5007429;28;19949;-85
2023/09/26 06:10:34;;;;;;;;;;;;;;;20.56;nan;102459.56;5007858;28;19956;-84
2023/09/26 06:12:59;;;;;;;;;;;;;;;20.61;nan;102457.63;5006152;28;19925;-84
2023/09/26 06:15:25;;;;;;;;;;;;;;;20.67;nan;102459.28;5019809;28;19967;-85
2023/09/26 06:17:57;;;;;;;;;;;;;;;20.77;nan;102469.34;5008135;28;20016;-84
2023/09/26 06:20:22;;;;;;;;;;;;;;;20.88;nan;102464.69;5005953;28;19921;-84
2023/09/26 06:22:48;;;;;;;;;;;;;;;20.97;nan;102460.31;5004074;28;19918;-84
2023/09/26 06:25:13;;;;;;;;;;;;;;;21.07;nan;102466.56;5005435;28;19918;-84
2023/09/26 06:27:38;;;;;;;;;;;;;;;21.17;nan;102464.88;5004980;28;19921;-85
2023/09/26 06:30:05;;;;;;;;;;;;;;;21.29;nan;102465.41;5007486;28;19979;-85
2023/09/26 06:32:30;;;;;;;;;;;;;;;21.44;nan;102476.25;5006492;28;19925;-85
2023/09/26 06:34:57;;;;;;;;;;;;;;;21.58;nan;102473.75;5005649;28;19954;-84
2023/09/26 06:37:23;;;;;;;;;;;;;;;21.69;nan;102467.94;5006842;28;19917;-84
2023/09/26 06:39:48;;;;;;;;;;;;;;;21.83;nan;102472.78;5008087;28;20296;-84
2023/09/26 06:42:13;;;;;;;;;;;;;;;21.94;nan;102468.91;5007646;28;19921;-84
2023/09/26 06:44:39;;;;;;;;;;;;;;;22.06;nan;102474.03;5006110;28;20445;-84
2023/09/26 06:47:04;;;;;;;;;;;;;;;22.16;nan;102477.50;5004232;28;19968;-84
2023/09/26 06:49:29;;;;;;;;;;;;;;;22.28;nan;102466.25;5007046;28;19925;-84
2023/09/26 06:51:55;;;;;;;;;;;;;;;22.41;nan;102468.28;5005616;28;20530;-84
2023/09/26 06:54:20;;;;;;;;;;;;;;;22.56;nan;102475.53;5004801;28;20336;-84
2023/09/26 06:56:46;;;;;;;;;;;;;;;22.68;nan;102475.16;5005781;28;19924;-84
2023/09/26 06:59:11;;;;;;;;;;;;;;;22.78;nan;102484.06;5004074;28;19967;-84
2023/09/26 07:01:36;;;;;;;;;;;;;;;22.89;nan;102482.91;5003883;28;20060;-84
2023/09/26 07:04:01;;;;;;;;;;;;;;;23.00;nan;102478.16;5003084;28;20011;-84
2023/09/26 07:06:27;;;;;;;;;;;;;;;23.09;nan;102486.50;5008764;28;19921;-84
2023/09/26 07:08:55;;;;;;;;;;;;;;;23.17;nan;102483.97;5002809;28;19980;-84
2023/09/26 07:11:22;;;;;;;;;;;;;;;23.28;nan;102483.84;5006687;28;19924;-83
2023/09/26 07:13:47;;;;;;;;;;;;;;;23.38;nan;102484.53;4997799;28;19925;-84
2023/09/26 07:16:13;;;;;;;;;;;;;;;23.50;nan;102486.84;5006653;28;20380;-84
2023/09/26 07:18:38;;;;;;;;;;;;;;;23.59;nan;102482.38;5009184;28;20372;-84
2023/09/26 07:21:07;;;;;;;;;;;;;;;23.69;nan;102484.97;5006642;28;20032;-84
2023/09/26 07:23:33;;;;;;;;;;;;;;;23.81;nan;102481.81;5005847;28;19957;-84
2023/09/26 07:26:08;;;;;;;;;;;;;;;23.91;nan;102483.59;5001848;28;20529;-84
2023/09/26 07:28:34;;;;;;;;;;;;;;;24.05;nan;102487.19;5003408;28;19944;-84
2023/09/26 07:30:59;;;;;;;;;;;;;;;24.17;nan;102490.28;5004147;28;19925;-84
2023/09/26 07:33:26;;;;;;;;;;;;;;;24.27;nan;102484.66;5003736;28;19935;-84
2023/09/26 07:35:51;;;;;;;;;;;;;;;24.43;nan;102482.53;5002083;28;20304;-84
2023/09/26 07:38:17;;;;;;;;;;;;;;;24.56;nan;102478.19;5003317;28;19917;-84
2023/09/26 07:40:42;;;;;;;;;;;;;;;24.71;nan;102477.91;4998476;28;19933;-84
2023/09/26 07:43:07;;;;;;;;;;;;;;;24.86;nan;102479.56;5005349;28;19921;-84
2023/09/26 07:45:37;;;;;;;;;;;;;;;24.97;nan;102475.53;5001189;28;19921;-84
2023/09/26 07:48:02;;;;;;;;;;;;;;;25.08;nan;102466.00;5005520;28;19921;-84
2023/09/26 07:50:28;;;;;;;;;;;;;;;25.20;nan;102469.03;5006219;28;19928;-84
2023/09/26 07:52:53;;;;;;;;;;;;;;;25.31;nan;102475.13;5001877;28;19920;-84
2023/09/26 07:55:18;;;;;;;;;;;;;;;25.42;nan;102468.31;5003015;28;20313;-85
2023/09/26 07:57:44;;;;;;;;;;;;;;;25.51;nan;102474.72;5004725;28;19979;-84
2023/09/26 08:00:12;;;;;;;;;;;;;;;25.64;nan;102474.97;5007479;28;20531;-85
2023/09/26 08:02:37;;;;;;;;;;;;;;;25.71;nan;102472.66;5001936;28;19928;-85
2023/09/26 08:05:03;;;;;;;;;;;;;;;25.81;nan;102470.47;5003357;28;19953;-85
2023/09/26 08:07:28;;;;;;;;;;;;;;;25.94;nan;102471.56;5003011;28;20008;-85
2023/09/26 08:09:55;;;;;;;;;;;;;;;26.07;nan;102470.72;5002788;28;20292;-85
2023/09/26 08:12:20;;;;;;;;;;;;;;;26.18;nan;102465.75;5003000;28;19921;-85
2023/09/26 08:14:45;;;;;;;;;;;;;;;26.33;nan;102472.81;4995390;28;19925;-85
2023/09/26 08:17:11;;;;;;;;;;;;;;;26.43;nan;102467.09;5001701;28;20060;-85
2023/09/26 08:19:36;;;;;;;;;;;;;;;26.48;nan;102466.97;5003008;28;20016;-85
2023/09/26 08:22:02;;;;;;;;;;;;;;;26.56;nan;102459.88;4999671;28;19928;-85
2023/09/26 08:24:27;;;;;;;;;;;;;;;26.71;nan;102459.47;4999864;28;19917;-84
2023/09/26 08:26:52;;;;;;;;;;;;;;;26.75;nan;102463.22;5000781;28;19989;-85
2023/09/26 08:29:18;;;;;;;;;;;;;;;26.80;nan;102452.91;5004050;28;19925;-85
2023/09/26 08:31:43;;;;;;;;;;;;;;;26.93;nan;102464.94;5005027;28;20393;-85
2023/09/26 08:34:08;;;;;;;;;;;;;;;27.13;nan;102460.03;5001843;28;19918;-85
2023/09/26 08:36:34;;;;;;;;;;;;;;;27.30;nan;102458.13;5000337;28;20381;-85
2023/09/26 08:38:59;;;;;;;;;;;;;;;27.49;nan;102465.28;5005178;28;19972;-85
2023/09/26 08:41:26;;;;;;;;;;;;;;;27.68;nan;102455.63;5002732;28;19952;-85
2023/09/26 08:43:52;;;;;;;;;;;;;;;27.85;nan;102465.81;5002349;28;19921;-85
2023/09/26 08:46:19;;;;;;;;;;;;;;;27.98;nan;102456.56;4997817;28;19917;-84
2023/09/26 08:48:45;;;;;;;;;;;;;;;28.14;nan;102458.81;4998178;28;20065;-85
2023/09/26 08:51:10;;;;;;;;;;;;;;;28.31;nan;102449.75;5001288;28;20131;-85
2023/09/26 08:53:36;;;;;;;;;;;;;;;28.46;nan;102455.56;4996776;28;19917;-85
2023/09/26 08:56:01;;;;;;;;;;;;;;;28.58;nan;102452.94;4999179;28;19956;-86
2023/09/26 08:58:27;;;;;;;;;;;;;;;28.67;nan;102435.53;4998796;28;19925;-86
2023/09/26 09:00:54;;;;;;;;;;;;;;;28.79;nan;102438.41;4998815;28;19933;-86
2023/09/26 09:03:19;;;;;;;;;;;;;;;28.89;nan;102438.03;4999689;28;19933;-86
2023/09/26 09:05:44;;;;;;;;;;;;;;;28.99;nan;102440.44;5002947;28;19964;-86
2023/09/26 09:08:20;;;;;;;;;;;;;;;29.13;nan;102437.44;4998540;28;19932;-86
2023/09/26 09:10:49;;;;;;;;;;;;;;;29.24;nan;102437.84;5001834;28;19921;-85
2023/09/26 09:13:24;;;;;;;;;;;;;;;29.26;nan;102433.63;5001817;28;19921;-86
2023/09/26 09:15:50;;;;;;;;;;;;;;;29.34;nan;102426.44;4992014;28;19959;-85
2023/09/26 09:18:29;;;;;;;;;;;;;;;29.47;nan;102425.41;5003643;28;19968;-87
2023/09/26 09:20:54;;;;;;;;;;;;;;;29.60;nan;102427.06;5001083;28;20012;-86
2023/09/26 09:23:19;;;;;;;;;;;;;;;29.73;nan;102420.47;5002197;28;20364;-86
2023/09/26 09:25:45;;;;;;;;;;;;;;;29.82;nan;102419.59;5002172;28;19923;-87
2023/09/26 09:28:10;;;;;;;;;;;;;;;29.86;nan;102417.75;5002262;28;19933;-87
2023/09/26 09:30:36;;;;;;;;;;;;;;;29.92;nan;102419.16;5002142;28;20340;-85
2023/09/26 09:33:01;;;;;;;;;;;;;;;29.97;nan;102407.88;4998069;28;19917;-86
2023/09/26 09:35:27;;;;;;;;;;;;;;;30.03;nan;102412.06;5001788;28;19925;-86
2023/09/26 09:37:52;;;;;;;;;;;;;;;30.04;nan;102410.94;5002486;28;19928;-86
2023/09/26 09:40:19;;;;;;;;;;;;;;;30.08;nan;102403.59;5003434;28;19925;-86
2023/09/26 09:42:45;;;;;;;;;;;;;;;30.19;nan;102409.50;4993236;28;20273;-86
2023/09/26 09:45:11;;;;;;;;;;;;;;;30.27;nan;102412.16;4999842;28;19918;-87
2023/09/26 09:47:42;;;;;;;;;;;;;;;30.27;nan;102405.81;5003121;28;19917;-87
2023/09/26 09:50:08;;;;;;;;;;;;;;;30.27;nan;102406.63;5004597;28;19918;-86
2023/09/26 09:52:33;;;;;;;;;;;;;;;30.31;nan;102399.25;5005587;28;19925;-86
2023/09/26 09:55:02;;;;;;;;;;;;;;;30.43;nan;102400.44;5004101;28;19928;-86
2023/09/26 09:57:32;;;;;;;;;;;;;;;30.53;nan;102397.22;5004982;28;19921;-86
2023/09/26 09:59:57;;;;;;;;;;;;;;;30.53;nan;102397.22;5008577;28;19969;-87
2023/09/26 10:02:23;;;;;;;;;;;;;;;30.54;nan;102404.38;5005840;28;20375;-87
2023/09/26 10:04:49;;;;;;;;;;;;;;;30.58;nan;102392.28;5009029;28;19922;-86
2023/09/26 10:07:15;;;;;;;;;;;;;;;30.75;nan;102396.00;5006090;28;19928;-87
2023/09/26 10:09:42;;;;;;;;;;;;;;;30.88;nan;102398.41;5006162;28;19925;-87
2023/09/26 10:12:09;;;;;;;;;;;;;;;30.94;nan;102391.47;5005771;28;20385;-86
2023/09/26 10:14:35;;;;;;;;;;;;;;;31.01;nan;102387.31;5005624;28;19929;-86
2023/09/26 10:17:02;;;;;;;;;;;;;;;31.15;nan;102383.03;5003993;28;19921;-87
2023/09/26 10:19:28;;;;;;;;;;;;;;;31.25;nan;102377.03;5006827;28;20363;-87
2023/09/26 10:22:12;;;;;;;;;;;;;;;31.36;nan;102385.66;5003640;28;20008;-87
2023/09/26 10:24:44;;;;;;;;;;;;;;;31.36;nan;102388.41;5004497;28;19925;-89
2023/09/26 10:27:10;;;;;;;;;;;;;;;31.36;nan;102385.66;5005218;28;20249;-86
2023/09/26 10:29:36;;;;;;;;;;;;;;;31.40;nan;102386.56;5006552;28;19925;-87
2023/09/26 10:32:06;;;;;;;;;;;;;;;31.55;nan;102379.47;5005133;28;19921;-87
2023/09/26 10:34:33;;;;;;;;;;;;;;;31.72;nan;102389.44;5008115;28;19925;-86
2023/09/26 10:36:59;;;;;;;;;;;;;;;31.77;nan;102380.91;5006565;28;20091;-88
2023/09/26 10:39:37;;;;;;;;;;;;;;;31.86;nan;102378.78;5006142;28;20413;-86
2023/09/26 10:42:09;;;;;;;;;;;;;;;31.99;nan;102369.25;5002903;28;20277;-87
2023/09/26 10:44:35;;;;;;;;;;;;;;;32.14;nan;102371.25;5003892;28;19968;-86
2023/09/26 10:47:00;;;;;;;;;;;;;;;32.20;nan;102368.19;5003532;28;19964;-88
2023/09/26 10:49:26;;;;;;;;;;;;;;;32.17;nan;102367.75;5010575;28;19944;-85
2023/09/26 10:51:51;;;;;;;;;;;;;;;32.16;nan;102360.59;5005386;28;20420;-86
2023/09/26 10:54:16;;;;;;;;;;;;;;;32.28;nan;102365.25;4999371;28;19936;-86
2023/09/26 10:56:48;;;;;;;;;;;;;;;32.42;nan;102362.03;4997345;28;20009;-86
2023/09/26 10:59:15;;;;;;;;;;;;;;;32.55;nan;102352.47;5004079;28;19921;-86
2023/09/26 11:01:41;;;;;;;;;;;;;;;32.68;nan;102351.19;5005506;28;20016;-86
2023/09/26 11:04:06;;;;;;;;;;;;;;;32.84;nan;102351.19;5003493;28;20008;-85
2023/09/26 11:06:33;;;;;;;;;;;;;;;32.92;nan;102357.72;5006704;28;21062;-86
2023/09/26 11:08:59;;;;;;;;;;;;;;;32.89;nan;102350.09;5020386;28;19933;-86
2023/09/26 11:11:25;;;;;;;;;;;;;;;32.81;nan;102348.31;5004312;28;19924;-86
2023/09/26 11:13:51;;;;;;;;;;;;;;;32.74;nan;102354.50;5007558;28;19943;-86
2023/09/26 11:16:17;;;;;;;;;;;;;;;32.75;nan;102351.34;5001133;28;19963;-85
2023/09/26 11:18:43;;;;;;;;;;;;;;;32.79;nan;102351.44;5004460;28;19933;-85
2023/09/26 11:21:08;;;;;;;;;;;;;;;32.84;nan;102339.25;5002958;28;19922;-86
2023/09/26 11:23:34;;;;;;;;;;;;;;;32.81;nan;102340.81;5004737;28;19925;-85
2023/09/26 11:26:03;;;;;;;;;;;;;;;32.85;nan;102338.09;5001936;28;19925;-86
2023/09/26 11:28:30;;;;;;;;;;;;;;;32.96;nan;102341.94;5004205;28;19917;-85
2023/09/26 11:30:55;;;;;;;;;;;;;;;33.05;nan;102329.47;5003575;28;19917;-85
2023/09/26 11:33:20;;;;;;;;;;;;;;;33.20;nan;102336.09;5004539;28;19932;-89
2023/09/26 11:35:46;;;;;;;;;;;;;;;33.28;nan;102335.09;5008605;28;19921;-87
2023/09/26 11:38:11;;;;;;;;;;;;;;;33.39;nan;102334.50;5005915;28;19922;-90
2023/09/26 11:40:36;;;;;;;;;;;;;;;33.47;nan;102336.28;5007151;28;19922;-88
2023/09/26 11:43:03;;;;;;;;;;;;;;;33.54;nan;102330.84;5009796;28;19917;-88
2023/09/26 11:45:29;;;;;;;;;;;;;;;33.57;nan;102325.34;5006957;28;19922;-89
2023/09/26 11:47:57;;;;;;;;;;;;;;;33.64;nan;102324.72;5007276;28;19928;-88
2023/09/26 11:50:22;;;;;;;;;;;;;;;33.71;nan;102318.47;5006655;28;19918;-88
2023/09/26 11:52:48;;;;;;;;;;;;;;;33.76;nan;102320.97;5008838;28;19917;-88
2023/09/26 11:55:17;;;;;;;;;;;;;;;33.78;nan;102324.97;5008837;28;19959;-88
2023/09/26 11:57:43;;;;;;;;;;;;;;;33.77;nan;102317.81;5007349;28;19932;-89
2023/09/26 12:00:11;;;;;;;;;;;;;;;33.77;nan;102312.25;5009292;28;19924;-88
2023/09/26 12:02:38;;;;;;;;;;;;;;;33.98;nan;102316.63;5006245;28;19917;-89
2023/09/26 12:05:06;;;;;;;;;;;;;;;34.15;nan;102311.34;5009275;28;19967;-88
2023/09/26 12:07:31;;;;;;;;;;;;;;;34.21;nan;102301.50;5002906;28;19921;-88
2023/09/26 12:09:57;;;;;;;;;;;;;;;34.24;nan;102300.75;5007622;28;19918;-90
2023/09/26 12:12:22;;;;;;;;;;;;;;;34.22;nan;102294.75;5006501;28;19924;-87
2023/09/26 12:14:48;;;;;;;;;;;;;;;34.22;nan;102303.09;5004582;28;19967;-88
2023/09/26 12:17:14;;;;;;;;;;;;;;;34.37;nan;102295.81;5003590;28;19921;-88
2023/09/26 12:19:39;;;;;;;;;;;;;;;34.56;nan;102291.31;5006490;28;19933;-87
2023/09/26 12:22:04;;;;;;;;;;;;;;;34.72;nan;102291.94;5001603;28;19920;-87
2023/09/26 12:24:29;;;;;;;;;;;;;;;34.83;nan;102298.44;5004558;28;20016;-85
2023/09/26 12:26:55;;;;;;;;;;;;;;;34.91;nan;102280.69;5008980;28;19917;-86
2023/09/26 12:29:20;;;;;;;;;;;;;;;35.06;nan;102279.72;5004234;28;19926;-86
2023/09/26 12:31:46;;;;;;;;;;;;;;;35.18;nan;102277.81;5002353;28;19932;-86
2023/09/26 12:34:12;;;;;;;;;;;;;;;35.24;nan;102285.50;5004786;28;20385;-85
2023/09/26 12:36:37;;;;;;;;;;;;;;;35.26;nan;102285.91;5002533;28;19929;-85
2023/09/26 12:39:03;;;;;;;;;;;;;;;35.12;nan;102274.59;5002689;28;19925;-85
2023/09/26 12:41:28;;;;;;;;;;;;;;;35.05;nan;102272.53;5002236;28;19921;-85
2023/09/26 12:43:54;;;;;;;;;;;;;;;35.10;nan;102271.38;5001569;28;20369;-85
2023/09/26 12:46:20;;;;;;;;;;;;;;;35.21;nan;102266.75;5002004;28;19925;-85
2023/09/26 12:48:45;;;;;;;;;;;;;;;35.28;nan;102264.03;5001981;28;21054;-85
2023/09/26 12:51:11;;;;;;;;;;;;;;;35.30;nan;102269.22;5000949;28;20221;-84
2023/09/26 12:53:36;;;;;;;;;;;;;;;35.34;nan;102264.47;5003515;28;19929;-86